createdAt,value
2018-12-31T00:01:56.039Z,97.40
2018-12-31T00:04:24.156Z,97.40
2018-12-31T00:06:52.103Z,97.40
2018-12-31T00:09:19.972Z,97.50
2018-12-31T00:11:47.856Z,97.60
2018-12-31T00:14:15.774Z,97.70
2018-12-31T00:16:43.922Z,97.80
2018-12-31T00:19:11.808Z,97.80
2018-12-31T00:21:39.691Z,97.80
2018-12-31T00:24:07.579Z,97.80
2018-12-31T00:26:35.455Z,97.80
2018-12-31T00:29:03.799Z,97.80
2018-12-31T00:31:31.930Z,97.80
2018-12-31T00:34:00.026Z,97.80
2018-12-31T00:36:28.331Z,97.90
2018-12-31T00:38:56.301Z,98.00
2018-12-31T00:41:24.777Z,97.80
2018-12-31T00:43:53.280Z,97.70
2018-12-31T00:46:21.280Z,97.60
2018-12-31T00:48:49.549Z,97.60
2018-12-31T00:51:18.106Z,97.40
2018-12-31T00:53:45.984Z,97.30
2018-12-31T00:56:14.145Z,97.20
2018-12-31T00:58:42.039Z,97.30
2018-12-31T01:01:10.177Z,97.20
2018-12-31T01:03:38.060Z,97.30
2018-12-31T01:06:05.937Z,97.20
2018-12-31T01:08:33.819Z,97.20
2018-12-31T01:11:01.869Z,97.30
2018-12-31T01:13:29.813Z,97.30
2018-12-31T01:15:57.705Z,97.20
2018-12-31T01:18:26.045Z,97.50
2018-12-31T01:20:54.534Z,97.60
2018-12-31T01:23:22.706Z,97.60
2018-12-31T01:25:50.575Z,97.70
2018-12-31T01:28:18.698Z,97.80
2018-12-31T01:30:46.616Z,97.80
2018-12-31T01:33:14.496Z,97.90
2018-12-31T01:35:42.380Z,98.00
2018-12-31T01:38:10.284Z,98.00
2018-12-31T01:40:38.213Z,98.00
2018-12-31T01:43:06.381Z,98.00
2018-12-31T01:45:34.456Z,98.00
2018-12-31T01:48:02.584Z,98.10
2018-12-31T01:50:30.853Z,98.20
2018-12-31T01:52:58.748Z,98.20
2018-12-31T01:55:26.640Z,98.20
2018-12-31T01:57:54.621Z,98.20
2018-12-31T02:00:22.805Z,97.90
2018-12-31T02:02:51.740Z,97.90
2018-12-31T02:05:19.669Z,97.90
2018-12-31T02:07:47.864Z,98.00
2018-12-31T02:10:16.375Z,97.90
2018-12-31T02:12:44.320Z,97.80
2018-12-31T02:15:12.578Z,97.80
2018-12-31T02:17:40.728Z,97.90
2018-12-31T02:20:08.766Z,97.90
2018-12-31T02:22:36.874Z,97.80
2018-12-31T02:25:04.881Z,97.70
2018-12-31T02:27:32.834Z,97.60
2018-12-31T02:30:01.273Z,97.50
2018-12-31T02:32:29.479Z,97.50
2018-12-31T02:34:57.378Z,97.40
2018-12-31T02:37:25.555Z,97.40
2018-12-31T02:39:53.485Z,97.50
2018-12-31T02:42:21.811Z,97.50
2018-12-31T02:44:50.022Z,97.60
2018-12-31T02:47:18.173Z,97.60
2018-12-31T02:49:46.058Z,97.50
2018-12-31T02:52:13.940Z,97.50
2018-12-31T02:54:41.810Z,97.60
2018-12-31T02:57:09.690Z,97.60
2018-12-31T02:59:37.579Z,97.60
2018-12-31T03:02:05.462Z,97.60
2018-12-31T03:04:33.608Z,97.60
2018-12-31T03:07:01.549Z,97.80
2018-12-31T03:09:29.680Z,97.70
2018-12-31T03:11:57.799Z,97.70
2018-12-31T03:14:25.682Z,97.80
2018-12-31T03:16:53.573Z,97.80
2018-12-31T03:19:21.460Z,98.00
2018-12-31T03:21:49.511Z,98.00
2018-12-31T03:24:17.379Z,98.10
2018-12-31T03:26:45.436Z,98.00
2018-12-31T03:29:13.547Z,97.90
2018-12-31T03:31:41.915Z,97.90
2018-12-31T03:34:10.014Z,98.00
2018-12-31T03:36:38.231Z,97.90
2018-12-31T03:39:06.696Z,97.90
2018-12-31T03:41:34.573Z,97.80
2018-12-31T03:44:02.460Z,97.70
2018-12-31T03:46:30.504Z,97.70
2018-12-31T03:48:58.514Z,97.50
2018-12-31T03:51:26.395Z,97.60
2018-12-31T03:53:54.484Z,97.60
2018-12-31T03:56:22.931Z,97.70
2018-12-31T03:58:51.074Z,97.60
2018-12-31T04:01:19.560Z,97.70
2018-12-31T04:03:47.898Z,97.70
2018-12-31T04:06:16.277Z,97.70
2018-12-31T04:08:44.258Z,97.80
2018-12-31T04:11:12.436Z,97.70
2018-12-31T04:13:40.633Z,97.70
2018-12-31T04:16:08.697Z,97.80
2018-12-31T04:18:36.605Z,97.90
2018-12-31T04:21:05.118Z,98.10
2018-12-31T04:23:33.287Z,97.90
2018-12-31T04:26:01.159Z,97.90
2018-12-31T04:28:29.049Z,97.80
2018-12-31T04:30:57.522Z,97.80
2018-12-31T04:33:25.392Z,97.90
2018-12-31T04:35:53.417Z,97.80
2018-12-31T04:38:21.571Z,98.00
2018-12-31T04:40:49.721Z,98.00
2018-12-31T04:43:17.741Z,97.90
2018-12-31T04:45:45.894Z,98.00
2018-12-31T04:48:13.773Z,98.10
2018-12-31T04:50:41.961Z,98.30
2018-12-31T04:53:10.094Z,98.20
2018-12-31T04:55:44.169Z,98.20
2018-12-31T04:58:07.951Z,98.20
2018-12-31T05:00:36.362Z,98.20
2018-12-31T05:03:04.616Z,98.20
2018-12-31T05:05:32.472Z,98.20
2018-12-31T05:08:00.389Z,98.50
2018-12-31T05:10:28.269Z,98.20
2018-12-31T05:12:56.153Z,98.30
2018-12-31T05:15:24.043Z,98.30
2018-12-31T05:17:52.258Z,98.30
2018-12-31T05:20:20.454Z,98.30
2018-12-31T05:22:48.438Z,98.20
2018-12-31T05:25:16.934Z,98.30
2018-12-31T05:27:45.337Z,98.30
2018-12-31T05:30:13.256Z,98.30
2018-12-31T05:32:41.413Z,98.20
2018-12-31T05:35:09.374Z,98.10
2018-12-31T05:37:37.612Z,98.20
2018-12-31T05:40:05.890Z,98.20
2018-12-31T05:42:34.037Z,98.20
2018-12-31T05:45:02.248Z,98.30
2018-12-31T05:47:30.413Z,98.20
2018-12-31T05:49:58.708Z,98.20
2018-12-31T05:52:26.690Z,98.10
2018-12-31T05:54:54.797Z,98.10
2018-12-31T05:57:23.224Z,98.00
2018-12-31T05:59:51.106Z,97.90
2018-12-31T06:02:19.003Z,97.80
2018-12-31T06:04:47.309Z,97.80
2018-12-31T06:07:15.180Z,97.70
2018-12-31T06:09:46.508Z,97.80
2018-12-31T06:12:17.864Z,97.90
2018-12-31T06:14:46.136Z,97.90
2018-12-31T06:17:14.306Z,97.80
2018-12-31T06:19:42.479Z,97.70
2018-12-31T06:22:10.441Z,97.70
2018-12-31T06:24:38.410Z,97.80
2018-12-31T06:27:06.279Z,97.80
2018-12-31T06:29:34.173Z,97.80
2018-12-31T06:32:02.099Z,97.90
2018-12-31T06:34:30.136Z,98.10
2018-12-31T06:36:58.075Z,98.00
2018-12-31T06:39:26.053Z,97.90
2018-12-31T06:41:54.285Z,98.00
2018-12-31T06:44:23.505Z,98.00
2018-12-31T06:46:51.461Z,98.00
2018-12-31T06:49:19.628Z,98.00
2018-12-31T06:51:47.965Z,98.00
2018-12-31T06:54:15.851Z,97.90
2018-12-31T06:56:44.120Z,97.90
2018-12-31T06:59:12.005Z,97.80
2018-12-31T07:01:40.178Z,97.90
2018-12-31T07:04:08.253Z,98.00
2018-12-31T07:06:36.233Z,97.90
2018-12-31T07:09:05.705Z,98.00
2018-12-31T07:11:33.795Z,98.10
2018-12-31T07:14:01.677Z,98.10
2018-12-31T07:16:29.548Z,98.20
2018-12-31T07:18:57.601Z,98.30
2018-12-31T07:21:25.741Z,98.30
2018-12-31T07:23:53.621Z,98.30
2018-12-31T07:26:21.588Z,98.40
2018-12-31T07:28:49.459Z,98.30
2018-12-31T07:31:17.411Z,98.40
2018-12-31T07:33:46.394Z,98.50
2018-12-31T07:36:14.572Z,98.50
2018-12-31T07:38:42.821Z,98.50
2018-12-31T07:41:11.022Z,98.60
2018-12-31T07:43:39.261Z,98.70
2018-12-31T07:46:07.260Z,98.70
2018-12-31T07:48:35.417Z,98.70
2018-12-31T07:51:03.555Z,98.80
2018-12-31T07:53:31.463Z,98.80
2018-12-31T07:55:59.346Z,98.90
2018-12-31T07:58:27.331Z,98.90
2018-12-31T08:00:55.466Z,98.70
2018-12-31T08:03:23.719Z,98.80
2018-12-31T08:05:51.800Z,98.70
2018-12-31T08:08:19.775Z,98.70
2018-12-31T08:10:47.652Z,98.80
2018-12-31T08:13:15.951Z,98.80
2018-12-31T08:15:44.405Z,98.80
2018-12-31T08:18:12.293Z,98.70
2018-12-31T08:20:40.644Z,98.70
2018-12-31T08:23:08.814Z,98.50
2018-12-31T08:25:37.632Z,98.50
2018-12-31T08:28:05.529Z,98.60
2018-12-31T08:30:33.490Z,98.60
2018-12-31T08:33:03.392Z,98.60
2018-12-31T08:35:31.320Z,98.20
2018-12-31T08:38:00.280Z,97.90
2018-12-31T08:40:28.274Z,98.10
2018-12-31T08:42:56.183Z,97.70
2018-12-31T08:45:24.095Z,97.60
2018-12-31T08:47:51.973Z,97.50
2018-12-31T08:50:20.029Z,97.50
2018-12-31T08:52:47.922Z,97.50
2018-12-31T08:55:15.868Z,97.40
2018-12-31T08:57:43.782Z,97.50
2018-12-31T09:00:11.670Z,97.50
2018-12-31T09:02:39.568Z,97.60
2018-12-31T09:05:07.524Z,97.60
2018-12-31T09:07:35.508Z,97.70
2018-12-31T09:10:03.841Z,97.80
2018-12-31T09:12:31.909Z,98.00
2018-12-31T09:14:59.812Z,98.00
2018-12-31T09:17:27.683Z,98.10
2018-12-31T09:19:55.571Z,97.90
2018-12-31T09:22:52.778Z,98.00
2018-12-31T09:25:14.981Z,98.00
2018-12-31T09:27:42.866Z,97.60
2018-12-31T09:30:10.888Z,97.50
2018-12-31T09:32:38.809Z,97.50
2018-12-31T09:35:06.880Z,97.40
2018-12-31T09:37:34.969Z,97.50
2018-12-31T09:40:02.888Z,97.50
2018-12-31T09:42:30.775Z,97.60
2018-12-31T09:44:58.808Z,97.70
2018-12-31T09:47:26.762Z,97.70
2018-12-31T09:49:54.686Z,97.40
2018-12-31T09:52:22.775Z,97.20
2018-12-31T09:54:50.645Z,97.20
2018-12-31T09:57:28.656Z,97.20
2018-12-31T09:59:56.607Z,97.30
2018-12-31T10:02:24.636Z,97.10
2018-12-31T10:04:52.690Z,96.90
2018-12-31T10:07:20.577Z,96.60
2018-12-31T10:09:48.967Z,96.20
2018-12-31T10:12:17.020Z,96.10
2018-12-31T10:14:45.161Z,95.70
2018-12-31T10:17:13.088Z,95.60
2018-12-31T10:19:41.244Z,95.60
2018-12-31T10:22:09.209Z,95.10
2018-12-31T10:24:37.170Z,95.10
2018-12-31T10:27:05.148Z,94.80
2018-12-31T10:29:36.137Z,94.50
2018-12-31T10:32:02.717Z,94.10
2018-12-31T10:34:30.668Z,93.80
2018-12-31T10:36:58.569Z,93.80
2018-12-31T10:39:26.514Z,93.80
2018-12-31T10:41:55.053Z,93.90
2018-12-31T10:44:23.733Z,94.20
2018-12-31T10:46:51.652Z,94.10
2018-12-31T10:49:19.540Z,94.00
2018-12-31T10:51:47.480Z,93.80
2018-12-31T10:54:15.425Z,93.80
2018-12-31T10:56:43.424Z,93.80
2018-12-31T10:59:11.306Z,93.80
2018-12-31T11:01:39.220Z,94.30
2018-12-31T11:04:07.280Z,94.20
2018-12-31T11:06:35.285Z,94.30
2018-12-31T11:09:03.274Z,94.00
2018-12-31T11:11:33.907Z,93.50
2018-12-31T11:14:02.244Z,94.10
2018-12-31T11:16:30.150Z,93.80
2018-12-31T11:18:58.083Z,93.90
2018-12-31T11:21:26.002Z,93.80
2018-12-31T11:23:53.967Z,93.60
2018-12-31T11:26:21.843Z,93.80
2018-12-31T11:28:49.761Z,94.00
2018-12-31T11:31:17.642Z,94.10
2018-12-31T11:33:45.568Z,93.90
2018-12-31T11:36:13.837Z,93.70
2018-12-31T11:38:41.880Z,93.70
2018-12-31T11:41:09.867Z,93.20
2018-12-31T11:43:37.903Z,92.80
2018-12-31T11:46:06.249Z,91.60
2018-12-31T11:48:34.125Z,91.70
2018-12-31T11:51:02.011Z,91.30
2018-12-31T11:53:30.216Z,90.90
2018-12-31T11:55:58.250Z,91.30
2018-12-31T11:58:26.128Z,91.70
2018-12-31T12:00:54.213Z,91.60
2018-12-31T12:03:22.086Z,90.80
2018-12-31T12:05:50.121Z,90.30
2018-12-31T12:08:18.249Z,90.00
2018-12-31T12:10:46.233Z,89.20
2018-12-31T12:13:14.188Z,88.40
2018-12-31T12:15:42.558Z,87.30
2018-12-31T12:18:10.443Z,88.80
2018-12-31T12:20:38.357Z,88.80
2018-12-31T12:23:06.365Z,89.00
2018-12-31T12:25:34.260Z,85.80
2018-12-31T12:28:02.524Z,85.60
2018-12-31T12:30:30.446Z,84.90
2018-12-31T12:32:58.405Z,82.30
2018-12-31T12:35:26.430Z,82.80
2018-12-31T12:37:54.434Z,82.10
2018-12-31T12:40:23.262Z,83.30
2018-12-31T12:42:51.514Z,84.00
2018-12-31T12:45:19.542Z,84.80
2018-12-31T12:47:47.625Z,85.50
2018-12-31T12:50:15.943Z,86.10
2018-12-31T12:52:43.841Z,86.20
2018-12-31T12:55:12.584Z,86.30
2018-12-31T12:57:40.922Z,87.10
2018-12-31T13:00:09.253Z,86.70
2018-12-31T13:02:41.546Z,86.80
2018-12-31T13:05:10.418Z,88.30
2018-12-31T13:07:39.736Z,88.90
2018-12-31T13:10:09.280Z,88.80
2018-12-31T13:12:38.530Z,89.30
2018-12-31T13:15:07.621Z,89.30
2018-12-31T13:17:36.729Z,88.70
2018-12-31T13:20:05.964Z,89.10
2018-12-31T13:22:35.202Z,89.40
2018-12-31T13:25:04.935Z,89.00
2018-12-31T13:27:33.729Z,90.00
2018-12-31T13:30:02.526Z,90.40
2018-12-31T13:32:31.745Z,91.10
2018-12-31T13:35:00.725Z,91.20
2018-12-31T13:37:29.521Z,91.30
2018-12-31T13:39:58.334Z,91.90
2018-12-31T13:42:27.202Z,92.40
2018-12-31T13:44:56.003Z,93.00
2018-12-31T13:47:24.874Z,93.30
2018-12-31T13:49:53.652Z,93.60
2018-12-31T13:52:22.518Z,94.10
2018-12-31T13:54:51.305Z,94.40
2018-12-31T13:57:20.109Z,94.30
2018-12-31T13:59:48.962Z,94.60
2018-12-31T14:02:17.759Z,95.00
2018-12-31T14:04:46.549Z,95.20
2018-12-31T14:07:15.690Z,95.40
2018-12-31T14:09:44.537Z,95.40
2018-12-31T14:12:13.348Z,95.40
2018-12-31T14:14:42.458Z,95.70
2018-12-31T14:17:11.275Z,95.80
2018-12-31T14:19:40.197Z,95.90
2018-12-31T14:22:08.988Z,95.80
2018-12-31T14:24:38.120Z,95.60
2018-12-31T14:27:07.041Z,95.60
2018-12-31T14:29:35.944Z,95.90
2018-12-31T14:32:05.086Z,96.10
2018-12-31T14:34:33.928Z,95.90
2018-12-31T14:37:02.911Z,96.00
2018-12-31T14:39:31.976Z,96.10
2018-12-31T14:42:01.082Z,96.30
2018-12-31T14:44:30.029Z,96.40
2018-12-31T14:46:59.276Z,96.50
2018-12-31T14:49:28.150Z,96.60
2018-12-31T14:51:57.021Z,96.60
2018-12-31T14:54:25.823Z,96.70
2018-12-31T14:56:54.920Z,96.70
2018-12-31T14:59:23.756Z,96.80
2018-12-31T15:01:52.829Z,96.90
2018-12-31T15:04:21.629Z,96.90
2018-12-31T15:06:50.423Z,97.00
2018-12-31T15:09:19.224Z,97.00
2018-12-31T15:11:48.418Z,97.00
2018-12-31T15:14:17.563Z,97.10
2018-12-31T15:16:46.332Z,97.10
2018-12-31T15:19:15.300Z,97.20
2018-12-31T15:21:44.149Z,97.30
2018-12-31T15:24:13.461Z,97.40
2018-12-31T15:26:42.597Z,97.40
2018-12-31T15:29:11.513Z,97.50
2018-12-31T15:31:40.466Z,97.60
2018-12-31T15:34:09.444Z,97.70
2018-12-31T15:36:38.634Z,97.80
2018-12-31T15:39:07.616Z,97.80
2018-12-31T15:41:36.439Z,97.80
2018-12-31T15:44:05.237Z,97.90
2018-12-31T15:46:34.015Z,98.30
2018-12-31T15:49:02.820Z,98.00
2018-12-31T15:51:31.648Z,98.10
2018-12-31T15:54:00.827Z,98.10
2018-12-31T15:56:30.276Z,98.20
2018-12-31T15:58:59.267Z,98.20
2018-12-31T16:01:28.429Z,98.20
2018-12-31T16:03:57.942Z,98.40
2018-12-31T16:06:26.792Z,98.50
2018-12-31T16:08:55.588Z,98.50
2018-12-31T16:11:24.610Z,98.50
2018-12-31T16:13:53.784Z,98.60
2018-12-31T16:16:22.557Z,98.70
2018-12-31T16:18:51.354Z,98.80
2018-12-31T16:21:20.378Z,98.80
2018-12-31T16:23:49.631Z,98.80
2018-12-31T16:26:18.937Z,98.80
2018-12-31T16:28:48.241Z,98.90
2018-12-31T16:31:18.656Z,99.00
2018-12-31T16:33:48.022Z,99.00
2018-12-31T16:36:17.338Z,99.00
2018-12-31T16:38:46.128Z,99.00
2018-12-31T16:41:14.901Z,99.00
2018-12-31T16:43:44.415Z,99.00
2018-12-31T16:46:13.497Z,98.90
2018-12-31T16:48:42.313Z,98.90
2018-12-31T16:51:11.742Z,98.90
2018-12-31T16:53:40.621Z,99.10
2018-12-31T16:56:09.446Z,99.10
2018-12-31T16:58:38.623Z,99.20
2018-12-31T17:01:07.415Z,99.10
2018-12-31T17:03:36.914Z,99.20
2018-12-31T17:06:06.159Z,99.10
2018-12-31T17:08:35.006Z,99.10
2018-12-31T17:11:03.823Z,99.10
2018-12-31T17:13:32.700Z,99.10
2018-12-31T17:16:01.566Z,99.10
2018-12-31T17:18:30.374Z,99.10
2018-12-31T17:20:59.158Z,99.20
2018-12-31T17:23:28.262Z,99.20
2018-12-31T17:25:58.498Z,99.20
2018-12-31T17:28:27.680Z,99.30
2018-12-31T17:30:56.488Z,99.20
2018-12-31T17:33:25.315Z,99.30
2018-12-31T17:35:54.149Z,99.30
2018-12-31T17:38:22.949Z,99.30
2018-12-31T17:40:51.747Z,99.30
2018-12-31T17:43:20.605Z,99.30
2018-12-31T17:45:49.790Z,99.30
2018-12-31T17:48:18.561Z,99.30
2018-12-31T17:50:47.767Z,99.40
2018-12-31T17:53:16.544Z,99.40
2018-12-31T17:55:45.369Z,99.40
2018-12-31T17:58:14.143Z,99.40
2018-12-31T18:00:43.233Z,99.40
2018-12-31T18:03:12.018Z,99.40
2018-12-31T18:05:41.444Z,99.50
2018-12-31T18:08:10.586Z,99.50
2018-12-31T18:10:39.471Z,99.30
2018-12-31T18:13:08.257Z,99.50
2018-12-31T18:15:37.069Z,99.60
2018-12-31T18:18:05.856Z,99.60
2018-12-31T18:20:35.538Z,99.60
2018-12-31T18:23:04.636Z,99.60
2018-12-31T18:25:33.457Z,99.60
2018-12-31T18:28:02.700Z,99.60
2018-12-31T18:30:31.507Z,99.70
2018-12-31T18:33:00.298Z,99.70
2018-12-31T18:35:29.410Z,99.70
2018-12-31T18:37:58.173Z,99.70
2018-12-31T18:40:27.224Z,99.80
2018-12-31T18:42:56.079Z,99.90
2018-12-31T18:45:25.241Z,99.90
2018-12-31T18:47:54.029Z,99.90
2018-12-31T18:50:23.509Z,99.90
2018-12-31T18:52:52.636Z,99.90
2018-12-31T18:55:21.434Z,99.90
2018-12-31T18:57:51.012Z,99.90
2018-12-31T19:00:20.534Z,99.90
2018-12-31T19:02:49.321Z,99.90
2018-12-31T19:05:18.519Z,99.90
2018-12-31T19:07:47.696Z,99.90
2018-12-31T19:10:16.881Z,99.90
2018-12-31T19:12:46.083Z,99.90
2018-12-31T19:15:14.895Z,99.90
2018-12-31T19:17:43.702Z,99.90
2018-12-31T19:20:12.912Z,99.90
2018-12-31T19:22:41.993Z,99.90
2018-12-31T19:25:11.355Z,99.90
2018-12-31T19:27:40.244Z,99.90
2018-12-31T19:30:09.717Z,99.90
2018-12-31T19:32:38.501Z,99.90
2018-12-31T19:35:07.367Z,99.90
2018-12-31T19:37:36.153Z,99.90
2018-12-31T19:40:05.441Z,99.90
2018-12-31T19:42:34.593Z,99.90
2018-12-31T19:45:03.471Z,99.90
2018-12-31T19:47:32.345Z,99.90
2018-12-31T19:50:01.448Z,99.90
2018-12-31T19:52:30.533Z,99.90
2018-12-31T19:54:59.322Z,99.90
2018-12-31T19:57:28.438Z,99.90
2018-12-31T19:59:57.263Z,99.90
2018-12-31T20:02:26.436Z,99.90
2018-12-31T20:04:55.397Z,99.90
2018-12-31T20:07:24.452Z,99.90
2018-12-31T20:09:53.256Z,99.90
2018-12-31T20:12:22.068Z,99.90
2018-12-31T20:14:51.309Z,99.90
2018-12-31T20:17:20.147Z,99.90
2018-12-31T20:19:48.924Z,99.90
2018-12-31T20:22:17.757Z,99.90
2018-12-31T20:24:46.910Z,99.90
2018-12-31T20:27:15.996Z,99.90
2018-12-31T20:29:45.056Z,99.90
2018-12-31T20:32:14.632Z,99.90
2018-12-31T20:34:43.436Z,99.90
2018-12-31T20:37:12.503Z,99.90
2018-12-31T20:39:41.785Z,99.90
2018-12-31T20:42:10.893Z,99.90
2018-12-31T20:44:40.585Z,99.90
2018-12-31T20:47:09.393Z,99.90
2018-12-31T20:49:38.244Z,99.90
2018-12-31T20:52:07.811Z,99.90
2018-12-31T20:54:37.361Z,99.90
2018-12-31T20:57:06.168Z,99.90
2018-12-31T20:59:34.938Z,99.90
2018-12-31T21:02:03.829Z,99.90
2018-12-31T21:04:32.606Z,99.90
2018-12-31T21:07:01.739Z,99.90
2018-12-31T21:09:30.594Z,99.90
2018-12-31T21:11:59.404Z,99.90
2018-12-31T21:14:28.560Z,99.90
2018-12-31T21:16:57.390Z,99.90
2018-12-31T21:19:26.305Z,99.90
2018-12-31T21:21:55.114Z,99.90
2018-12-31T21:24:24.649Z,99.90
2018-12-31T21:26:53.450Z,99.90
2018-12-31T21:29:22.610Z,99.90
2018-12-31T21:31:51.417Z,99.90
2018-12-31T21:34:20.562Z,99.90
2018-12-31T21:36:49.459Z,99.90
2018-12-31T21:39:18.249Z,99.90
2018-12-31T21:41:47.091Z,99.90
2018-12-31T21:44:16.145Z,99.90
2018-12-31T21:46:45.890Z,99.90
2018-12-31T21:49:15.569Z,99.90
2018-12-31T21:51:44.591Z,99.90
2018-12-31T21:54:13.770Z,99.90
2018-12-31T21:56:43.185Z,99.90
2018-12-31T21:59:11.965Z,99.90
2018-12-31T22:01:40.842Z,99.90
2018-12-31T22:04:10.029Z,99.90
2018-12-31T22:06:39.275Z,99.90
2018-12-31T22:09:09.462Z,99.90
2018-12-31T22:11:38.891Z,99.90
2018-12-31T22:14:07.828Z,99.90
2018-12-31T22:16:37.248Z,99.90
2018-12-31T22:19:06.364Z,99.90
2018-12-31T22:21:35.929Z,99.90
2018-12-31T22:24:05.234Z,99.90
2018-12-31T22:26:34.386Z,99.90
2018-12-31T22:29:03.203Z,99.90
2018-12-31T22:31:32.268Z,99.90
2018-12-31T22:34:01.665Z,99.90
2018-12-31T22:36:31.170Z,99.90
2018-12-31T22:39:00.347Z,99.90
2018-12-31T22:41:29.506Z,99.90
2018-12-31T22:43:58.686Z,99.90
2018-12-31T22:46:27.877Z,99.90
2018-12-31T22:48:57.409Z,99.90
2018-12-31T22:51:26.745Z,99.90
2018-12-31T22:53:56.937Z,99.90
2018-12-31T22:56:26.004Z,99.90
2018-12-31T22:58:56.576Z,99.90
2018-12-31T23:01:26.447Z,99.90
2018-12-31T23:03:55.580Z,99.90
2018-12-31T23:06:25.117Z,99.90
2018-12-31T23:08:54.501Z,99.90
2018-12-31T23:11:23.268Z,99.90
2018-12-31T23:13:52.164Z,99.90
2018-12-31T23:16:24.158Z,99.90
2018-12-31T23:18:53.133Z,99.90
2018-12-31T23:21:22.433Z,99.90
2018-12-31T23:23:51.663Z,99.90
2018-12-31T23:26:21.046Z,99.90
2018-12-31T23:28:52.752Z,99.90
2018-12-31T23:31:22.191Z,99.90
2018-12-31T23:33:55.133Z,99.90
2018-12-31T23:36:24.239Z,99.90
2018-12-31T23:38:54.010Z,99.90
2018-12-31T23:41:23.309Z,99.90
2018-12-31T23:43:52.085Z,99.90
2018-12-31T23:46:21.564Z,99.90
2018-12-31T23:48:50.482Z,99.90
2018-12-31T23:51:19.471Z,99.90
2018-12-31T23:53:48.473Z,99.90
2018-12-31T23:56:17.439Z,99.90
2018-12-31T23:58:46.237Z,99.90
